GUA weather

La Aurora Airport
Guatemala City, Guatemala, Guatemala

Public forecast

Using degrees Celsius for public forecast. Weather courtesy of forecast.io.

Current aviation weather report (METAR) for La Aurora Airport

Retrieved 2019/10/18 07:00 UTC (19 minutes ago):

MGGT 180700Z 00000KT 7000 BKN012 BKN200 18/17 Q1025 A3027 BR

Aviation forecast (TAF) for La Aurora Airport

Forecast is more than 6 hours old.

Retrieved 2019-10-18 00:57 UTC (6 hours ago):

TAF MGGT 172300Z 1800/1900 18006KT 8000 SCT016 TX26/1820Z TN15/1812Z PROB30 1800/1804 8000 VCTSRA FEW025CB PROB40 TEMPO 1808/1816 3000 BR SCT008 SCT012 BECMG 1816/1818 18008KT SCT018 TEMPO 1818/1900 SCT020TCU